sensor_id;sensor_type;location;lat;lon;timestamp;P1;durP1;ratioP1;P2;durP2;ratioP2
48199;SDS011;33990;44.602;10.976;2023-07-30T00:00:15;4.43;;;2.95;;
48199;SDS011;33990;44.602;10.976;2023-07-30T00:02:42;4.25;;;3.20;;
48199;SDS011;33990;44.602;10.976;2023-07-30T00:05:09;6.30;;;3.25;;
48199;SDS011;33990;44.602;10.976;2023-07-30T00:07:37;4.50;;;3.15;;
48199;SDS011;33990;44.602;10.976;2023-07-30T00:10:04;5.38;;;3.72;;
48199;SDS011;33990;44.602;10.976;2023-07-30T00:12:32;4.25;;;3.28;;
48199;SDS011;33990;44.602;10.976;2023-07-30T00:14:59;4.85;;;3.47;;
48199;SDS011;33990;44.602;10.976;2023-07-30T00:17:27;4.68;;;3.20;;
48199;SDS011;33990;44.602;10.976;2023-07-30T00:19:54;4.47;;;3.72;;
48199;SDS011;33990;44.602;10.976;2023-07-30T00:22:21;4.72;;;3.20;;
48199;SDS011;33990;44.602;10.976;2023-07-30T00:24:50;4.13;;;3.40;;
48199;SDS011;33990;44.602;10.976;2023-07-30T00:27:17;6.78;;;3.00;;
48199;SDS011;33990;44.602;10.976;2023-07-30T00:29:49;4.13;;;3.05;;
48199;SDS011;33990;44.602;10.976;2023-07-30T00:32:16;4.78;;;3.28;;
48199;SDS011;33990;44.602;10.976;2023-07-30T00:34:44;6.57;;;3.95;;
48199;SDS011;33990;44.602;10.976;2023-07-30T00:37:11;3.85;;;2.92;;
48199;SDS011;33990;44.602;10.976;2023-07-30T00:39:39;4.90;;;2.92;;
48199;SDS011;33990;44.602;10.976;2023-07-30T00:42:06;4.40;;;3.00;;
48199;SDS011;33990;44.602;10.976;2023-07-30T00:44:33;5.03;;;3.17;;
48199;SDS011;33990;44.602;10.976;2023-07-30T00:47:01;4.55;;;3.22;;
48199;SDS011;33990;44.602;10.976;2023-07-30T00:49:30;4.35;;;2.80;;
48199;SDS011;33990;44.602;10.976;2023-07-30T00:51:57;4.20;;;2.95;;
48199;SDS011;33990;44.602;10.976;2023-07-30T00:54:25;4.18;;;2.90;;
48199;SDS011;33990;44.602;10.976;2023-07-30T00:56:53;4.00;;;2.80;;
48199;SDS011;33990;44.602;10.976;2023-07-30T00:59:20;3.63;;;2.83;;
48199;SDS011;33990;44.602;10.976;2023-07-30T01:01:49;5.60;;;3.60;;
48199;SDS011;33990;44.602;10.976;2023-07-30T01:04:18;4.88;;;3.05;;
48199;SDS011;33990;44.602;10.976;2023-07-30T01:06:46;4.60;;;3.35;;
48199;SDS011;33990;44.602;10.976;2023-07-30T01:09:13;4.32;;;3.53;;
48199;SDS011;33990;44.602;10.976;2023-07-30T01:11:41;5.68;;;3.50;;
48199;SDS011;33990;44.602;10.976;2023-07-30T01:14:10;4.18;;;3.20;;
48199;SDS011;33990;44.602;10.976;2023-07-30T01:16:38;5.00;;;3.30;;
48199;SDS011;33990;44.602;10.976;2023-07-30T01:19:06;4.50;;;2.47;;
48199;SDS011;33990;44.602;10.976;2023-07-30T01:21:34;5.57;;;3.70;;
48199;SDS011;33990;44.602;10.976;2023-07-30T01:24:03;4.10;;;2.97;;
48199;SDS011;33990;44.602;10.976;2023-07-30T01:26:44;4.03;;;2.67;;
48199;SDS011;33990;44.602;10.976;2023-07-30T01:29:21;6.75;;;3.28;;
48199;SDS011;33990;44.602;10.976;2023-07-30T01:31:56;5.20;;;3.17;;
48199;SDS011;33990;44.602;10.976;2023-07-30T01:34:24;4.25;;;2.95;;
48199;SDS011;33990;44.602;10.976;2023-07-30T01:36:55;3.70;;;2.70;;
48199;SDS011;33990;44.602;10.976;2023-07-30T01:39:24;4.53;;;2.65;;
48199;SDS011;33990;44.602;10.976;2023-07-30T01:41:55;5.90;;;2.58;;
48199;SDS011;33990;44.602;10.976;2023-07-30T01:44:22;4.45;;;2.88;;
48199;SDS011;33990;44.602;10.976;2023-07-30T01:46:50;3.88;;;3.15;;
48199;SDS011;33990;44.602;10.976;2023-07-30T01:49:17;3.55;;;2.15;;
48199;SDS011;33990;44.602;10.976;2023-07-30T01:51:44;4.57;;;2.95;;
48199;SDS011;33990;44.602;10.976;2023-07-30T01:54:12;4.75;;;2.80;;
48199;SDS011;33990;44.602;10.976;2023-07-30T01:56:40;3.75;;;2.38;;
48199;SDS011;33990;44.602;10.976;2023-07-30T01:59:07;5.05;;;2.75;;
48199;SDS011;33990;44.602;10.976;2023-07-30T02:01:35;3.80;;;2.47;;
48199;SDS011;33990;44.602;10.976;2023-07-30T02:04:03;3.80;;;2.80;;
48199;SDS011;33990;44.602;10.976;2023-07-30T02:06:30;4.05;;;2.35;;
48199;SDS011;33990;44.602;10.976;2023-07-30T02:08:58;3.45;;;2.33;;
48199;SDS011;33990;44.602;10.976;2023-07-30T02:11:25;4.40;;;2.40;;
48199;SDS011;33990;44.602;10.976;2023-07-30T02:13:52;3.42;;;2.30;;
48199;SDS011;33990;44.602;10.976;2023-07-30T02:16:20;3.15;;;2.15;;
48199;SDS011;33990;44.602;10.976;2023-07-30T02:18:47;3.55;;;2.22;;
48199;SDS011;33990;44.602;10.976;2023-07-30T02:21:15;3.03;;;2.30;;
48199;SDS011;33990;44.602;10.976;2023-07-30T02:23:42;3.15;;;2.13;;
48199;SDS011;33990;44.602;10.976;2023-07-30T02:26:09;3.40;;;2.30;;
48199;SDS011;33990;44.602;10.976;2023-07-30T02:28:37;3.45;;;2.33;;
48199;SDS011;33990;44.602;10.976;2023-07-30T02:31:05;4.80;;;2.20;;
48199;SDS011;33990;44.602;10.976;2023-07-30T02:33:32;3.35;;;2.13;;
48199;SDS011;33990;44.602;10.976;2023-07-30T02:36:00;3.42;;;2.28;;
48199;SDS011;33990;44.602;10.976;2023-07-30T02:38:27;3.70;;;2.42;;
48199;SDS011;33990;44.602;10.976;2023-07-30T02:40:55;4.35;;;2.40;;
48199;SDS011;33990;44.602;10.976;2023-07-30T02:43:22;3.40;;;2.25;;
48199;SDS011;33990;44.602;10.976;2023-07-30T02:45:50;3.50;;;2.30;;
48199;SDS011;33990;44.602;10.976;2023-07-30T02:48:17;3.05;;;2.30;;
48199;SDS011;33990;44.602;10.976;2023-07-30T02:50:45;3.95;;;2.10;;
48199;SDS011;33990;44.602;10.976;2023-07-30T02:53:12;3.20;;;2.20;;
48199;SDS011;33990;44.602;10.976;2023-07-30T02:55:40;3.45;;;2.10;;
48199;SDS011;33990;44.602;10.976;2023-07-30T02:58:07;2.90;;;1.65;;
48199;SDS011;33990;44.602;10.976;2023-07-30T03:00:34;3.75;;;2.25;;
48199;SDS011;33990;44.602;10.976;2023-07-30T03:03:02;3.28;;;2.15;;
48199;SDS011;33990;44.602;10.976;2023-07-30T03:05:30;2.35;;;1.75;;
48199;SDS011;33990;44.602;10.976;2023-07-30T03:07:57;3.10;;;2.00;;
48199;SDS011;33990;44.602;10.976;2023-07-30T03:10:25;2.75;;;1.77;;
48199;SDS011;33990;44.602;10.976;2023-07-30T03:12:52;3.13;;;1.85;;
48199;SDS011;33990;44.602;10.976;2023-07-30T03:15:19;3.22;;;1.92;;
48199;SDS011;33990;44.602;10.976;2023-07-30T03:17:47;2.55;;;1.75;;
48199;SDS011;33990;44.602;10.976;2023-07-30T03:20:15;2.95;;;1.88;;
48199;SDS011;33990;44.602;10.976;2023-07-30T03:22:42;2.80;;;1.75;;
48199;SDS011;33990;44.602;10.976;2023-07-30T03:25:09;3.47;;;1.70;;
48199;SDS011;33990;44.602;10.976;2023-07-30T03:27:37;2.70;;;1.85;;
48199;SDS011;33990;44.602;10.976;2023-07-30T03:30:04;5.15;;;1.88;;
48199;SDS011;33990;44.602;10.976;2023-07-30T03:32:32;2.83;;;1.88;;
48199;SDS011;33990;44.602;10.976;2023-07-30T03:35:00;2.42;;;1.48;;
48199;SDS011;33990;44.602;10.976;2023-07-30T03:37:27;2.65;;;1.63;;
48199;SDS011;33990;44.602;10.976;2023-07-30T03:39:54;3.83;;;1.83;;
48199;SDS011;33990;44.602;10.976;2023-07-30T03:42:21;3.35;;;1.90;;
48199;SDS011;33990;44.602;10.976;2023-07-30T03:44:49;2.70;;;1.80;;
48199;SDS011;33990;44.602;10.976;2023-07-30T03:47:16;3.63;;;2.13;;
48199;SDS011;33990;44.602;10.976;2023-07-30T03:49:44;2.90;;;1.90;;
48199;SDS011;33990;44.602;10.976;2023-07-30T03:52:11;2.95;;;1.85;;
48199;SDS011;33990;44.602;10.976;2023-07-30T03:54:39;2.42;;;1.63;;
48199;SDS011;33990;44.602;10.976;2023-07-30T03:57:07;2.42;;;1.45;;
48199;SDS011;33990;44.602;10.976;2023-07-30T03:59:34;2.90;;;1.70;;
48199;SDS011;33990;44.602;10.976;2023-07-30T04:02:01;2.63;;;1.20;;
48199;SDS011;33990;44.602;10.976;2023-07-30T04:04:29;3.38;;;1.77;;
48199;SDS011;33990;44.602;10.976;2023-07-30T04:06:59;2.50;;;1.45;;
48199;SDS011;33990;44.602;10.976;2023-07-30T04:09:26;2.70;;;1.38;;
48199;SDS011;33990;44.602;10.976;2023-07-30T04:11:54;2.85;;;1.92;;
48199;SDS011;33990;44.602;10.976;2023-07-30T04:14:21;2.60;;;1.42;;
48199;SDS011;33990;44.602;10.976;2023-07-30T04:16:48;2.65;;;1.70;;
48199;SDS011;33990;44.602;10.976;2023-07-30T04:19:16;2.20;;;1.17;;
48199;SDS011;33990;44.602;10.976;2023-07-30T04:21:43;2.47;;;1.33;;
48199;SDS011;33990;44.602;10.976;2023-07-30T04:24:11;3.25;;;1.50;;
48199;SDS011;33990;44.602;10.976;2023-07-30T04:26:38;3.75;;;1.90;;
48199;SDS011;33990;44.602;10.976;2023-07-30T04:29:05;3.88;;;1.65;;
48199;SDS011;33990;44.602;10.976;2023-07-30T04:31:33;3.20;;;1.38;;
48199;SDS011;33990;44.602;10.976;2023-07-30T04:34:01;3.50;;;1.77;;
48199;SDS011;33990;44.602;10.976;2023-07-30T04:36:30;3.03;;;1.73;;
48199;SDS011;33990;44.602;10.976;2023-07-30T04:38:58;2.30;;;1.48;;
48199;SDS011;33990;44.602;10.976;2023-07-30T04:41:30;2.13;;;1.17;;
48199;SDS011;33990;44.602;10.976;2023-07-30T04:44:02;3.45;;;1.52;;
48199;SDS011;33990;44.602;10.976;2023-07-30T04:46:30;2.85;;;1.58;;
48199;SDS011;33990;44.602;10.976;2023-07-30T04:49:01;1.95;;;1.10;;
48199;SDS011;33990;44.602;10.976;2023-07-30T04:51:31;2.40;;;1.48;;
48199;SDS011;33990;44.602;10.976;2023-07-30T04:53:58;3.08;;;1.33;;
48199;SDS011;33990;44.602;10.976;2023-07-30T04:56:26;2.40;;;1.60;;
48199;SDS011;33990;44.602;10.976;2023-07-30T04:58:54;3.17;;;1.45;;
48199;SDS011;33990;44.602;10.976;2023-07-30T05:01:21;2.72;;;1.33;;
48199;SDS011;33990;44.602;10.976;2023-07-30T05:03:49;2.75;;;1.38;;
48199;SDS011;33990;44.602;10.976;2023-07-30T05:06:16;2.28;;;1.30;;
48199;SDS011;33990;44.602;10.976;2023-07-30T05:08:43;3.20;;;1.63;;
48199;SDS011;33990;44.602;10.976;2023-07-30T05:11:11;2.28;;;1.55;;
48199;SDS011;33990;44.602;10.976;2023-07-30T05:13:38;2.67;;;1.58;;
48199;SDS011;33990;44.602;10.976;2023-07-30T05:16:05;3.53;;;1.40;;
48199;SDS011;33990;44.602;10.976;2023-07-30T05:18:33;2.17;;;1.25;;
48199;SDS011;33990;44.602;10.976;2023-07-30T05:21:00;2.55;;;1.70;;
48199;SDS011;33990;44.602;10.976;2023-07-30T05:23:28;2.58;;;1.10;;
48199;SDS011;33990;44.602;10.976;2023-07-30T05:25:55;3.03;;;1.67;;
48199;SDS011;33990;44.602;10.976;2023-07-30T05:28:22;3.47;;;1.40;;
48199;SDS011;33990;44.602;10.976;2023-07-30T05:30:50;3.20;;;1.40;;
48199;SDS011;33990;44.602;10.976;2023-07-30T05:33:17;2.05;;;1.30;;
48199;SDS011;33990;44.602;10.976;2023-07-30T05:35:47;2.17;;;1.15;;
48199;SDS011;33990;44.602;10.976;2023-07-30T05:38:15;2.50;;;1.50;;
48199;SDS011;33990;44.602;10.976;2023-07-30T05:40:42;2.58;;;1.48;;
48199;SDS011;33990;44.602;10.976;2023-07-30T05:43:09;2.50;;;1.15;;
48199;SDS011;33990;44.602;10.976;2023-07-30T05:45:37;3.03;;;1.40;;
48199;SDS011;33990;44.602;10.976;2023-07-30T05:48:04;2.33;;;1.33;;
48199;SDS011;33990;44.602;10.976;2023-07-30T05:50:32;1.88;;;1.08;;
48199;SDS011;33990;44.602;10.976;2023-07-30T05:52:59;2.42;;;1.10;;
48199;SDS011;33990;44.602;10.976;2023-07-30T05:55:26;1.90;;;1.10;;
48199;SDS011;33990;44.602;10.976;2023-07-30T05:57:54;2.35;;;1.20;;
48199;SDS011;33990;44.602;10.976;2023-07-30T06:00:22;2.45;;;1.58;;
48199;SDS011;33990;44.602;10.976;2023-07-30T06:02:51;2.63;;;1.50;;
48199;SDS011;33990;44.602;10.976;2023-07-30T06:05:18;2.35;;;1.20;;
48199;SDS011;33990;44.602;10.976;2023-07-30T06:07:46;3.58;;;1.65;;
48199;SDS011;33990;44.602;10.976;2023-07-30T06:10:13;2.47;;;1.15;;
48199;SDS011;33990;44.602;10.976;2023-07-30T06:12:40;5.03;;;1.40;;
48199;SDS011;33990;44.602;10.976;2023-07-30T06:15:08;2.58;;;1.40;;
48199;SDS011;33990;44.602;10.976;2023-07-30T06:17:36;2.05;;;1.13;;
48199;SDS011;33990;44.602;10.976;2023-07-30T06:20:04;2.90;;;1.40;;
48199;SDS011;33990;44.602;10.976;2023-07-30T06:22:32;2.42;;;1.33;;
48199;SDS011;33990;44.602;10.976;2023-07-30T06:24:59;2.38;;;1.20;;
48199;SDS011;33990;44.602;10.976;2023-07-30T06:27:26;2.13;;;0.90;;
48199;SDS011;33990;44.602;10.976;2023-07-30T06:29:54;2.13;;;1.10;;
48199;SDS011;33990;44.602;10.976;2023-07-30T06:32:21;3.03;;;1.38;;
48199;SDS011;33990;44.602;10.976;2023-07-30T06:34:49;2.35;;;1.10;;
48199;SDS011;33990;44.602;10.976;2023-07-30T06:37:16;2.20;;;1.17;;
48199;SDS011;33990;44.602;10.976;2023-07-30T06:39:44;3.22;;;1.15;;
48199;SDS011;33990;44.602;10.976;2023-07-30T06:42:11;2.60;;;1.20;;
48199;SDS011;33990;44.602;10.976;2023-07-30T06:44:38;2.40;;;1.38;;
48199;SDS011;33990;44.602;10.976;2023-07-30T06:47:06;2.20;;;1.30;;
48199;SDS011;33990;44.602;10.976;2023-07-30T06:49:33;1.92;;;1.10;;
48199;SDS011;33990;44.602;10.976;2023-07-30T06:52:01;2.90;;;1.25;;
48199;SDS011;33990;44.602;10.976;2023-07-30T06:54:29;2.42;;;1.20;;
48199;SDS011;33990;44.602;10.976;2023-07-30T06:56:56;3.47;;;1.60;;
48199;SDS011;33990;44.602;10.976;2023-07-30T06:59:24;7.00;;;1.88;;
48199;SDS011;33990;44.602;10.976;2023-07-30T07:01:51;3.97;;;1.88;;
48199;SDS011;33990;44.602;10.976;2023-07-30T07:04:18;4.55;;;2.20;;
48199;SDS011;33990;44.602;10.976;2023-07-30T07:06:46;2.95;;;1.50;;
48199;SDS011;33990;44.602;10.976;2023-07-30T07:09:13;2.28;;;1.60;;
48199;SDS011;33990;44.602;10.976;2023-07-30T07:11:41;2.22;;;1.40;;
48199;SDS011;33990;44.602;10.976;2023-07-30T07:14:08;3.28;;;1.40;;
48199;SDS011;33990;44.602;10.976;2023-07-30T07:16:35;2.25;;;1.30;;
48199;SDS011;33990;44.602;10.976;2023-07-30T07:19:03;4.25;;;1.73;;
48199;SDS011;33990;44.602;10.976;2023-07-30T07:21:30;2.35;;;1.50;;
48199;SDS011;33990;44.602;10.976;2023-07-30T07:23:57;2.40;;;1.58;;
48199;SDS011;33990;44.602;10.976;2023-07-30T07:26:25;2.15;;;1.48;;
48199;SDS011;33990;44.602;10.976;2023-07-30T07:28:55;2.17;;;1.23;;
48199;SDS011;33990;44.602;10.976;2023-07-30T07:31:23;2.10;;;1.20;;
48199;SDS011;33990;44.602;10.976;2023-07-30T07:33:50;2.60;;;1.65;;
48199;SDS011;33990;44.602;10.976;2023-07-30T07:36:18;2.22;;;1.52;;
48199;SDS011;33990;44.602;10.976;2023-07-30T07:38:45;2.92;;;1.73;;
48199;SDS011;33990;44.602;10.976;2023-07-30T07:41:13;2.75;;;1.80;;
48199;SDS011;33990;44.602;10.976;2023-07-30T07:43:43;2.45;;;1.58;;
48199;SDS011;33990;44.602;10.976;2023-07-30T07:46:11;2.85;;;1.90;;
48199;SDS011;33990;44.602;10.976;2023-07-30T07:51:11;5.57;;;1.92;;
48199;SDS011;33990;44.602;10.976;2023-07-30T07:53:39;3.67;;;2.00;;
48199;SDS011;33990;44.602;10.976;2023-07-30T07:56:07;3.10;;;1.83;;
48199;SDS011;33990;44.602;10.976;2023-07-30T07:58:37;2.88;;;1.80;;
48199;SDS011;33990;44.602;10.976;2023-07-30T08:01:05;2.50;;;1.50;;
48199;SDS011;33990;44.602;10.976;2023-07-30T08:03:32;3.17;;;1.23;;
48199;SDS011;33990;44.602;10.976;2023-07-30T08:06:00;2.47;;;1.35;;
48199;SDS011;33990;44.602;10.976;2023-07-30T08:08:27;2.63;;;1.30;;
48199;SDS011;33990;44.602;10.976;2023-07-30T08:10:54;3.90;;;1.80;;
48199;SDS011;33990;44.602;10.976;2023-07-30T08:13:22;3.13;;;1.40;;
48199;SDS011;33990;44.602;10.976;2023-07-30T08:15:49;3.20;;;1.75;;
48199;SDS011;33990;44.602;10.976;2023-07-30T08:18:20;3.13;;;1.73;;
48199;SDS011;33990;44.602;10.976;2023-07-30T08:20:49;2.90;;;1.92;;
48199;SDS011;33990;44.602;10.976;2023-07-30T08:23:16;2.78;;;1.50;;
48199;SDS011;33990;44.602;10.976;2023-07-30T08:25:44;2.80;;;1.70;;
48199;SDS011;33990;44.602;10.976;2023-07-30T08:28:11;2.78;;;1.88;;
48199;SDS011;33990;44.602;10.976;2023-07-30T08:30:38;2.53;;;1.48;;
48199;SDS011;33990;44.602;10.976;2023-07-30T08:33:06;2.97;;;2.05;;
48199;SDS011;33990;44.602;10.976;2023-07-30T08:35:33;2.72;;;1.90;;
48199;SDS011;33990;44.602;10.976;2023-07-30T08:38:01;3.05;;;2.03;;
48199;SDS011;33990;44.602;10.976;2023-07-30T08:40:28;3.05;;;1.80;;
48199;SDS011;33990;44.602;10.976;2023-07-30T08:42:56;2.83;;;1.90;;
48199;SDS011;33990;44.602;10.976;2023-07-30T08:45:24;2.60;;;1.52;;
48199;SDS011;33990;44.602;10.976;2023-07-30T08:47:51;3.67;;;1.83;;
48199;SDS011;33990;44.602;10.976;2023-07-30T08:50:19;6.53;;;1.80;;
48199;SDS011;33990;44.602;10.976;2023-07-30T08:52:47;3.05;;;1.42;;
48199;SDS011;33990;44.602;10.976;2023-07-30T08:55:15;3.00;;;1.63;;
48199;SDS011;33990;44.602;10.976;2023-07-30T08:57:44;2.72;;;1.52;;
48199;SDS011;33990;44.602;10.976;2023-07-30T09:00:12;3.35;;;1.70;;
48199;SDS011;33990;44.602;10.976;2023-07-30T09:02:44;3.83;;;1.80;;
48199;SDS011;33990;44.602;10.976;2023-07-30T09:05:18;3.72;;;2.08;;
48199;SDS011;33990;44.602;10.976;2023-07-30T09:07:50;2.90;;;1.65;;
48199;SDS011;33990;44.602;10.976;2023-07-30T09:10:17;3.55;;;2.10;;
48199;SDS011;33990;44.602;10.976;2023-07-30T09:12:45;2.65;;;1.80;;
48199;SDS011;33990;44.602;10.976;2023-07-30T09:15:15;2.60;;;1.65;;
48199;SDS011;33990;44.602;10.976;2023-07-30T09:17:43;2.83;;;1.63;;
48199;SDS011;33990;44.602;10.976;2023-07-30T09:20:12;2.47;;;1.65;;
48199;SDS011;33990;44.602;10.976;2023-07-30T09:22:39;2.80;;;1.67;;
48199;SDS011;33990;44.602;10.976;2023-07-30T09:25:08;2.70;;;1.77;;
48199;SDS011;33990;44.602;10.976;2023-07-30T09:27:35;3.28;;;1.98;;
48199;SDS011;33990;44.602;10.976;2023-07-30T09:30:03;2.78;;;1.77;;
48199;SDS011;33990;44.602;10.976;2023-07-30T09:32:34;2.78;;;1.88;;
48199;SDS011;33990;44.602;10.976;2023-07-30T09:35:09;3.22;;;1.80;;
48199;SDS011;33990;44.602;10.976;2023-07-30T09:37:38;3.00;;;1.80;;
48199;SDS011;33990;44.602;10.976;2023-07-30T09:40:08;3.30;;;2.17;;
48199;SDS011;33990;44.602;10.976;2023-07-30T09:42:37;2.72;;;1.58;;
48199;SDS011;33990;44.602;10.976;2023-07-30T09:45:08;2.45;;;1.55;;
48199;SDS011;33990;44.602;10.976;2023-07-30T09:47:47;3.72;;;1.92;;
48199;SDS011;33990;44.602;10.976;2023-07-30T09:50:15;2.60;;;1.77;;
48199;SDS011;33990;44.602;10.976;2023-07-30T09:52:43;2.33;;;1.60;;
48199;SDS011;33990;44.602;10.976;2023-07-30T09:55:11;2.78;;;1.73;;
48199;SDS011;33990;44.602;10.976;2023-07-30T09:57:39;3.50;;;2.08;;
48199;SDS011;33990;44.602;10.976;2023-07-30T10:00:07;3.13;;;1.90;;
48199;SDS011;33990;44.602;10.976;2023-07-30T10:02:39;4.60;;;1.95;;
48199;SDS011;33990;44.602;10.976;2023-07-30T10:05:19;3.08;;;1.85;;
48199;SDS011;33990;44.602;10.976;2023-07-30T10:07:54;4.72;;;2.38;;
48199;SDS011;33990;44.602;10.976;2023-07-30T10:10:26;3.80;;;1.77;;
48199;SDS011;33990;44.602;10.976;2023-07-30T10:12:57;2.78;;;1.73;;
48199;SDS011;33990;44.602;10.976;2023-07-30T10:15:27;2.70;;;1.70;;
48199;SDS011;33990;44.602;10.976;2023-07-30T10:17:56;3.22;;;1.90;;
48199;SDS011;33990;44.602;10.976;2023-07-30T10:20:27;3.17;;;2.00;;
48199;SDS011;33990;44.602;10.976;2023-07-30T10:22:57;4.28;;;1.88;;
48199;SDS011;33990;44.602;10.976;2023-07-30T10:28:32;2.35;;;1.58;;
48199;SDS011;33990;44.602;10.976;2023-07-30T10:31:02;3.08;;;2.03;;
48199;SDS011;33990;44.602;10.976;2023-07-30T10:39:13;3.45;;;2.35;;
48199;SDS011;33990;44.602;10.976;2023-07-30T10:41:49;3.17;;;2.45;;
48199;SDS011;33990;44.602;10.976;2023-07-30T10:44:28;4.25;;;2.83;;
48199;SDS011;33990;44.602;10.976;2023-07-30T10:46:58;2.92;;;1.92;;
48199;SDS011;33990;44.602;10.976;2023-07-30T10:49:26;3.28;;;2.40;;
48199;SDS011;33990;44.602;10.976;2023-07-30T10:51:55;2.95;;;2.05;;
48199;SDS011;33990;44.602;10.976;2023-07-30T10:54:24;5.50;;;2.20;;
48199;SDS011;33990;44.602;10.976;2023-07-30T10:56:52;3.80;;;2.45;;
48199;SDS011;33990;44.602;10.976;2023-07-30T10:59:21;2.67;;;2.03;;
48199;SDS011;33990;44.602;10.976;2023-07-30T11:01:49;3.45;;;2.60;;
48199;SDS011;33990;44.602;10.976;2023-07-30T11:04:18;3.58;;;2.30;;
48199;SDS011;33990;44.602;10.976;2023-07-30T11:06:46;3.17;;;2.05;;
48199;SDS011;33990;44.602;10.976;2023-07-30T11:09:22;2.97;;;1.95;;
48199;SDS011;33990;44.602;10.976;2023-07-30T11:11:52;4.35;;;2.58;;
48199;SDS011;33990;44.602;10.976;2023-07-30T11:14:22;3.58;;;2.15;;
48199;SDS011;33990;44.602;10.976;2023-07-30T11:16:56;3.70;;;2.50;;
48199;SDS011;33990;44.602;10.976;2023-07-30T11:19:26;3.65;;;2.13;;
48199;SDS011;33990;44.602;10.976;2023-07-30T11:21:55;3.17;;;2.33;;
48199;SDS011;33990;44.602;10.976;2023-07-30T11:24:33;3.30;;;2.25;;
48199;SDS011;33990;44.602;10.976;2023-07-30T11:27:02;3.03;;;1.88;;
48199;SDS011;33990;44.602;10.976;2023-07-30T11:29:30;4.25;;;2.75;;
48199;SDS011;33990;44.602;10.976;2023-07-30T11:31:58;2.97;;;2.13;;
48199;SDS011;33990;44.602;10.976;2023-07-30T11:34:26;2.70;;;1.98;;
48199;SDS011;33990;44.602;10.976;2023-07-30T11:36:55;3.58;;;2.15;;
48199;SDS011;33990;44.602;10.976;2023-07-30T11:39:24;4.82;;;2.70;;
48199;SDS011;33990;44.602;10.976;2023-07-30T11:41:52;4.65;;;2.60;;
48199;SDS011;33990;44.602;10.976;2023-07-30T11:44:33;4.43;;;2.17;;
48199;SDS011;33990;44.602;10.976;2023-07-30T11:47:02;4.35;;;2.08;;
48199;SDS011;33990;44.602;10.976;2023-07-30T11:49:31;4.47;;;2.70;;
48199;SDS011;33990;44.602;10.976;2023-07-30T11:52:07;4.82;;;2.80;;
48199;SDS011;33990;44.602;10.976;2023-07-30T11:54:36;4.80;;;2.50;;
48199;SDS011;33990;44.602;10.976;2023-07-30T11:57:04;4.60;;;2.30;;
48199;SDS011;33990;44.602;10.976;2023-07-30T11:59:32;3.55;;;2.50;;
48199;SDS011;33990;44.602;10.976;2023-07-30T12:02:00;3.38;;;2.67;;
48199;SDS011;33990;44.602;10.976;2023-07-30T12:04:31;5.30;;;2.97;;
48199;SDS011;33990;44.602;10.976;2023-07-30T12:07:09;3.65;;;2.60;;
48199;SDS011;33990;44.602;10.976;2023-07-30T12:09:37;3.55;;;2.33;;
48199;SDS011;33990;44.602;10.976;2023-07-30T12:12:05;3.20;;;2.20;;
48199;SDS011;33990;44.602;10.976;2023-07-30T12:17:11;3.65;;;2.67;;
48199;SDS011;33990;44.602;10.976;2023-07-30T12:19:38;3.08;;;2.30;;
48199;SDS011;33990;44.602;10.976;2023-07-30T12:22:08;6.53;;;3.20;;
48199;SDS011;33990;44.602;10.976;2023-07-30T12:24:35;4.75;;;2.55;;
48199;SDS011;33990;44.602;10.976;2023-07-30T12:27:03;3.72;;;2.53;;
48199;SDS011;33990;44.602;10.976;2023-07-30T12:29:30;3.55;;;2.17;;
48199;SDS011;33990;44.602;10.976;2023-07-30T12:31:58;3.78;;;2.35;;
48199;SDS011;33990;44.602;10.976;2023-07-30T12:34:30;4.68;;;2.67;;
48199;SDS011;33990;44.602;10.976;2023-07-30T12:36:57;4.25;;;2.63;;
48199;SDS011;33990;44.602;10.976;2023-07-30T12:39:25;4.28;;;2.65;;
48199;SDS011;33990;44.602;10.976;2023-07-30T12:41:52;4.05;;;2.03;;
48199;SDS011;33990;44.602;10.976;2023-07-30T12:44:21;5.68;;;2.28;;
48199;SDS011;33990;44.602;10.976;2023-07-30T12:46:49;5.07;;;2.30;;
48199;SDS011;33990;44.602;10.976;2023-07-30T12:49:16;3.72;;;2.33;;
48199;SDS011;33990;44.602;10.976;2023-07-30T12:51:43;3.35;;;2.00;;
48199;SDS011;33990;44.602;10.976;2023-07-30T12:54:11;3.15;;;2.25;;
48199;SDS011;33990;44.602;10.976;2023-07-30T12:56:38;2.97;;;2.00;;
48199;SDS011;33990;44.602;10.976;2023-07-30T12:59:05;3.38;;;2.40;;
48199;SDS011;33990;44.602;10.976;2023-07-30T13:01:32;3.65;;;2.20;;
48199;SDS011;33990;44.602;10.976;2023-07-30T13:04:00;4.07;;;2.00;;
48199;SDS011;33990;44.602;10.976;2023-07-30T13:06:27;4.13;;;2.22;;
48199;SDS011;33990;44.602;10.976;2023-07-30T13:08:55;3.42;;;2.08;;
48199;SDS011;33990;44.602;10.976;2023-07-30T13:11:22;3.50;;;2.50;;
48199;SDS011;33990;44.602;10.976;2023-07-30T13:13:49;3.97;;;2.10;;
48199;SDS011;33990;44.602;10.976;2023-07-30T13:16:17;4.30;;;2.45;;
48199;SDS011;33990;44.602;10.976;2023-07-30T13:18:44;2.85;;;1.90;;
48199;SDS011;33990;44.602;10.976;2023-07-30T13:21:11;3.38;;;1.88;;
48199;SDS011;33990;44.602;10.976;2023-07-30T13:23:39;2.55;;;1.67;;
48199;SDS011;33990;44.602;10.976;2023-07-30T13:26:06;3.00;;;1.85;;
48199;SDS011;33990;44.602;10.976;2023-07-30T13:28:33;4.00;;;2.03;;
48199;SDS011;33990;44.602;10.976;2023-07-30T13:31:01;4.03;;;2.08;;
48199;SDS011;33990;44.602;10.976;2023-07-30T13:33:28;4.97;;;1.98;;
48199;SDS011;33990;44.602;10.976;2023-07-30T13:35:56;2.72;;;1.80;;
48199;SDS011;33990;44.602;10.976;2023-07-30T13:38:23;3.15;;;2.30;;
48199;SDS011;33990;44.602;10.976;2023-07-30T13:40:53;3.22;;;2.05;;
48199;SDS011;33990;44.602;10.976;2023-07-30T13:43:21;3.42;;;1.90;;
48199;SDS011;33990;44.602;10.976;2023-07-30T13:45:48;2.95;;;1.80;;
48199;SDS011;33990;44.602;10.976;2023-07-30T13:48:17;2.70;;;1.85;;
48199;SDS011;33990;44.602;10.976;2023-07-30T13:50:45;2.83;;;1.63;;
48199;SDS011;33990;44.602;10.976;2023-07-30T13:53:12;2.88;;;2.05;;
48199;SDS011;33990;44.602;10.976;2023-07-30T13:55:39;3.22;;;2.25;;
48199;SDS011;33990;44.602;10.976;2023-07-30T13:58:07;3.50;;;2.10;;
48199;SDS011;33990;44.602;10.976;2023-07-30T14:00:35;3.45;;;1.95;;
48199;SDS011;33990;44.602;10.976;2023-07-30T14:03:02;2.95;;;1.77;;
48199;SDS011;33990;44.602;10.976;2023-07-30T14:05:30;2.90;;;2.10;;
48199;SDS011;33990;44.602;10.976;2023-07-30T14:07:57;2.72;;;1.90;;
48199;SDS011;33990;44.602;10.976;2023-07-30T14:10:28;3.33;;;1.77;;
48199;SDS011;33990;44.602;10.976;2023-07-30T14:12:55;2.90;;;1.95;;
48199;SDS011;33990;44.602;10.976;2023-07-30T14:15:22;3.47;;;2.20;;
48199;SDS011;33990;44.602;10.976;2023-07-30T14:17:50;2.88;;;2.08;;
48199;SDS011;33990;44.602;10.976;2023-07-30T14:20:19;2.95;;;1.92;;
48199;SDS011;33990;44.602;10.976;2023-07-30T14:22:46;3.90;;;2.10;;
48199;SDS011;33990;44.602;10.976;2023-07-30T14:25:14;4.70;;;2.25;;
48199;SDS011;33990;44.602;10.976;2023-07-30T14:27:41;3.28;;;2.10;;
48199;SDS011;33990;44.602;10.976;2023-07-30T14:30:09;3.17;;;1.77;;
48199;SDS011;33990;44.602;10.976;2023-07-30T14:32:37;2.80;;;1.92;;
48199;SDS011;33990;44.602;10.976;2023-07-30T14:35:04;3.47;;;2.10;;
48199;SDS011;33990;44.602;10.976;2023-07-30T14:37:32;2.83;;;1.85;;
48199;SDS011;33990;44.602;10.976;2023-07-30T14:40:00;3.03;;;1.83;;
48199;SDS011;33990;44.602;10.976;2023-07-30T14:42:27;2.50;;;1.70;;
48199;SDS011;33990;44.602;10.976;2023-07-30T14:44:55;3.80;;;2.15;;
48199;SDS011;33990;44.602;10.976;2023-07-30T14:47:22;3.97;;;2.05;;
48199;SDS011;33990;44.602;10.976;2023-07-30T14:49:49;2.83;;;1.95;;
48199;SDS011;33990;44.602;10.976;2023-07-30T14:52:18;3.25;;;2.10;;